createdAt,value
2023-04-16T00:01:26.190Z,98632.00
2023-04-16T00:03:53.172Z,98635.00
2023-04-16T00:06:20.074Z,98633.00
2023-04-16T00:08:46.641Z,98627.00
2023-04-16T00:11:13.193Z,98638.00
2023-04-16T00:13:39.661Z,98630.00
2023-04-16T00:16:07.184Z,98628.00
2023-04-16T00:18:33.727Z,98636.00
2023-04-16T00:21:00.313Z,98639.00
2023-04-16T00:23:26.801Z,98639.00
2023-04-16T00:25:53.908Z,98638.00
2023-04-16T00:28:20.441Z,98647.00
2023-04-16T00:30:47.117Z,98639.00
2023-04-16T00:33:13.596Z,98634.00
2023-04-16T00:35:40.348Z,98631.00
2023-04-16T00:38:06.799Z,98642.00
2023-04-16T00:40:33.249Z,98638.00
2023-04-16T00:42:59.769Z,98641.00
2023-04-16T00:45:26.374Z,98637.00
2023-04-16T00:47:52.982Z,98634.00
2023-04-16T00:50:19.703Z,98632.00
2023-04-16T00:52:48.434Z,98639.00
2023-04-16T00:55:17.584Z,98631.00
2023-04-16T00:57:44.870Z,98641.00
2023-04-16T01:00:12.359Z,98642.00
2023-04-16T01:02:39.866Z,98640.00
2023-04-16T01:05:06.755Z,98638.00
2023-04-16T01:07:33.279Z,98633.00
2023-04-16T01:09:59.774Z,98640.00
2023-04-16T01:12:26.300Z,98640.00
2023-04-16T01:14:52.947Z,98639.00
2023-04-16T01:17:19.512Z,98647.00
2023-04-16T01:19:45.984Z,98649.00
2023-04-16T01:22:12.500Z,98652.00
2023-04-16T01:24:39.592Z,98651.00
2023-04-16T01:27:09.869Z,98651.00
2023-04-16T01:29:36.364Z,98654.00
2023-04-16T01:32:03.004Z,98655.00
2023-04-16T01:34:34.189Z,98657.00
2023-04-16T01:37:00.793Z,98666.00
2023-04-16T01:39:27.410Z,98670.00
2023-04-16T01:41:54.017Z,98675.00
2023-04-16T01:44:21.766Z,98678.00
2023-04-16T01:46:48.686Z,98668.00
2023-04-16T01:49:15.748Z,98674.00
2023-04-16T01:51:42.318Z,98677.00
2023-04-16T01:54:09.225Z,98678.00
2023-04-16T01:56:35.721Z,98664.00
2023-04-16T01:59:02.424Z,98668.00
2023-04-16T02:01:34.757Z,98674.00
2023-04-16T02:04:01.663Z,98667.00
2023-04-16T02:06:28.258Z,98670.00
2023-04-16T02:08:55.054Z,98671.00
2023-04-16T02:11:21.675Z,98665.00
2023-04-16T02:13:49.389Z,98678.00
2023-04-16T02:16:17.695Z,98673.00
2023-04-16T02:18:52.780Z,98668.00
2023-04-16T02:21:21.573Z,98678.00
2023-04-16T02:23:51.543Z,98675.00
2023-04-16T02:26:22.500Z,98680.00
2023-04-16T02:28:49.842Z,98684.00
2023-04-16T02:31:19.526Z,98678.00
2023-04-16T02:33:47.660Z,98685.00
2023-04-16T02:36:14.734Z,98681.00
2023-04-16T02:38:41.246Z,98672.00
2023-04-16T02:41:08.227Z,98673.00
2023-04-16T02:43:35.005Z,98669.00
2023-04-16T02:46:02.170Z,98667.00
2023-04-16T02:48:28.783Z,98669.00
2023-04-16T02:50:55.641Z,98666.00
2023-04-16T02:53:22.157Z,98668.00
2023-04-16T02:55:53.215Z,98673.00
2023-04-16T02:58:21.061Z,98666.00
2023-04-16T03:00:47.592Z,98660.00
2023-04-16T03:03:14.456Z,98666.00
2023-04-16T03:05:41.012Z,98665.00
2023-04-16T03:08:07.853Z,98662.00
2023-04-16T03:10:35.393Z,98661.00
2023-04-16T03:13:02.459Z,98670.00
2023-04-16T03:15:29.366Z,98667.00
2023-04-16T03:17:55.925Z,98664.00
2023-04-16T03:20:22.603Z,98665.00
2023-04-16T03:22:49.674Z,98669.00
2023-04-16T03:25:16.457Z,98669.00
2023-04-16T03:27:42.966Z,98664.00
2023-04-16T03:30:12.355Z,98668.00
2023-04-16T03:32:39.406Z,98683.00
2023-04-16T03:35:07.562Z,98674.00
2023-04-16T03:37:35.014Z,98688.00
2023-04-16T03:40:02.060Z,98683.00
2023-04-16T03:42:29.022Z,98685.00
2023-04-16T03:44:57.365Z,98688.00
2023-04-16T03:47:24.008Z,98696.00
2023-04-16T03:49:54.056Z,98697.00
2023-04-16T03:52:20.484Z,98690.00
2023-04-16T03:54:47.404Z,98691.00
2023-04-16T03:57:29.895Z,98702.00
2023-04-16T04:00:01.904Z,98698.00
2023-04-16T04:02:41.036Z,98705.00
2023-04-16T04:05:13.556Z,98709.00
2023-04-16T04:07:41.202Z,98708.00
2023-04-16T04:10:08.975Z,98706.00
2023-04-16T04:12:38.829Z,98719.00
2023-04-16T04:15:06.023Z,98708.00
2023-04-16T04:17:32.512Z,98711.00
2023-04-16T04:20:01.768Z,98717.00
2023-04-16T04:22:30.704Z,98706.00
2023-04-16T04:24:57.184Z,98717.00
2023-04-16T04:27:27.156Z,98723.00
2023-04-16T04:29:53.724Z,98719.00
2023-04-16T04:32:21.843Z,98722.00
2023-04-16T04:34:49.173Z,98726.00
2023-04-16T04:37:15.898Z,98730.00
2023-04-16T04:39:43.558Z,98734.00
2023-04-16T04:42:12.314Z,98733.00
2023-04-16T04:44:39.003Z,98735.00
2023-04-16T04:47:05.977Z,98732.00
2023-04-16T04:49:32.466Z,98742.00
2023-04-16T04:51:58.980Z,98749.00
2023-04-16T04:54:25.519Z,98742.00
2023-04-16T04:56:53.428Z,98739.00
2023-04-16T04:59:20.952Z,98742.00
2023-04-16T05:01:47.656Z,98751.00
2023-04-16T05:04:14.237Z,98754.00
2023-04-16T05:06:40.954Z,98755.00
2023-04-16T05:09:11.630Z,98753.00
2023-04-16T05:11:39.090Z,98750.00
2023-04-16T05:14:05.550Z,98762.00
2023-04-16T05:16:32.092Z,98767.00
2023-04-16T05:18:58.719Z,98761.00
2023-04-16T05:21:26.329Z,98762.00
2023-04-16T05:23:53.351Z,98763.00
2023-04-16T05:26:19.895Z,98764.00
2023-04-16T05:28:46.563Z,98764.00
2023-04-16T05:31:13.107Z,98771.00
2023-04-16T05:33:39.688Z,98768.00
2023-04-16T05:36:06.464Z,98775.00
2023-04-16T05:38:32.942Z,98771.00
2023-04-16T05:40:59.487Z,98773.00
2023-04-16T05:43:26.021Z,98772.00
2023-04-16T05:45:52.509Z,98774.00
2023-04-16T05:48:20.076Z,98775.00
2023-04-16T05:50:46.624Z,98776.00
2023-04-16T05:53:14.234Z,98778.00
2023-04-16T05:55:40.858Z,98778.00
2023-04-16T05:58:07.482Z,98787.00
2023-04-16T06:00:34.104Z,98795.00
2023-04-16T06:03:01.026Z,98794.00
2023-04-16T06:05:27.825Z,98802.00
2023-04-16T06:07:54.568Z,98796.00
2023-04-16T06:10:21.071Z,98796.00
2023-04-16T06:12:47.721Z,98801.00
2023-04-16T06:15:14.175Z,98788.00
2023-04-16T06:17:40.682Z,98782.00
2023-04-16T06:20:07.753Z,98791.00
2023-04-16T06:22:34.506Z,98788.00
2023-04-16T06:25:01.362Z,98801.00
2023-04-16T06:27:27.877Z,98805.00
2023-04-16T06:29:54.429Z,98806.00
2023-04-16T06:32:21.102Z,98809.00
2023-04-16T06:34:47.704Z,98813.00
2023-04-16T06:37:14.217Z,98817.00
2023-04-16T06:39:40.810Z,98815.00
2023-04-16T06:42:07.397Z,98817.00
2023-04-16T06:44:33.954Z,98816.00
2023-04-16T06:47:00.457Z,98823.00
2023-04-16T06:49:27.111Z,98826.00
2023-04-16T06:51:53.694Z,98826.00
2023-04-16T06:54:20.322Z,98825.00
2023-04-16T06:56:46.823Z,98829.00
2023-04-16T06:59:13.300Z,98826.00
2023-04-16T07:01:41.312Z,98823.00
2023-04-16T07:04:07.852Z,98829.00
2023-04-16T07:06:34.534Z,98837.00
2023-04-16T07:09:01.092Z,98829.00
2023-04-16T07:11:27.909Z,98837.00
2023-04-16T07:13:54.381Z,98835.00
2023-04-16T07:16:20.995Z,98831.00
2023-04-16T07:18:47.656Z,98833.00
2023-04-16T07:21:14.151Z,98837.00
2023-04-16T07:23:40.734Z,98833.00
2023-04-16T07:26:07.405Z,98830.00
2023-04-16T07:28:33.952Z,98834.00
2023-04-16T07:31:00.584Z,98837.00
2023-04-16T07:33:27.310Z,98832.00
2023-04-16T07:35:53.860Z,98835.00
2023-04-16T07:38:20.598Z,98842.00
2023-04-16T07:40:47.147Z,98847.00
2023-04-16T07:43:15.153Z,98843.00
2023-04-16T07:45:41.815Z,98845.00
2023-04-16T07:48:08.349Z,98850.00
2023-04-16T07:50:34.812Z,98845.00
2023-04-16T07:53:01.420Z,98847.00
2023-04-16T07:55:27.899Z,98842.00
2023-04-16T07:57:55.222Z,98851.00
2023-04-16T08:00:21.810Z,98853.00
2023-04-16T08:02:48.609Z,98858.00
2023-04-16T08:05:15.421Z,98858.00
2023-04-16T08:07:41.984Z,98857.00
2023-04-16T08:10:08.889Z,98866.00
2023-04-16T08:12:35.761Z,98867.00
2023-04-16T08:15:02.321Z,98869.00
2023-04-16T08:17:29.940Z,98876.00
2023-04-16T08:19:56.493Z,98868.00
2023-04-16T08:22:23.043Z,98872.00
2023-04-16T08:24:49.494Z,98875.00
2023-04-16T08:27:19.581Z,98875.00
2023-04-16T08:29:48.440Z,98876.00
2023-04-16T08:32:15.226Z,98885.00
2023-04-16T08:34:42.163Z,98880.00
2023-04-16T08:37:09.385Z,98882.00
2023-04-16T08:39:36.078Z,98889.00
2023-04-16T08:42:05.630Z,98887.00
2023-04-16T08:44:37.321Z,98881.00
2023-04-16T08:47:08.085Z,98884.00
2023-04-16T08:49:36.837Z,98884.00
2023-04-16T08:52:06.621Z,98884.00
2023-04-16T08:54:36.767Z,98893.00
2023-04-16T08:57:06.189Z,98890.00
2023-04-16T08:59:33.905Z,98897.00
2023-04-16T09:02:01.002Z,98893.00
2023-04-16T09:04:30.893Z,98895.00
2023-04-16T09:06:58.955Z,98889.00
2023-04-16T09:09:26.943Z,98893.00
2023-04-16T09:11:54.122Z,98902.00
2023-04-16T09:14:20.959Z,98896.00
2023-04-16T09:16:48.004Z,98901.00
2023-04-16T09:19:15.358Z,98898.00
2023-04-16T09:21:44.692Z,98905.00
2023-04-16T09:24:11.552Z,98904.00
2023-04-16T09:26:38.661Z,98908.00
2023-04-16T09:29:05.373Z,98913.00
2023-04-16T09:31:31.926Z,98915.00
2023-04-16T09:34:02.702Z,98912.00
2023-04-16T09:36:29.326Z,98916.00
2023-04-16T09:38:57.500Z,98919.00
2023-04-16T09:41:27.177Z,98917.00
2023-04-16T09:43:58.794Z,98922.00
2023-04-16T09:46:30.779Z,98928.00
2023-04-16T09:48:57.704Z,98926.00
2023-04-16T09:51:26.090Z,98931.00
2023-04-16T09:53:55.722Z,98933.00
2023-04-16T09:56:26.173Z,98931.00
2023-04-16T09:58:58.406Z,98937.00
2023-04-16T10:01:25.571Z,98931.00
2023-04-16T10:03:55.109Z,98938.00
2023-04-16T10:06:25.355Z,98936.00
2023-04-16T10:08:54.097Z,98937.00
2023-04-16T10:11:21.340Z,98943.00
2023-04-16T10:13:48.023Z,98942.00
2023-04-16T10:16:14.590Z,98937.00
2023-04-16T10:18:43.472Z,98938.00
2023-04-16T10:21:12.712Z,98948.00
2023-04-16T10:23:40.234Z,98941.00
2023-04-16T10:26:06.997Z,98940.00
2023-04-16T10:28:35.342Z,98940.00
2023-04-16T10:31:04.076Z,98955.00
2023-04-16T10:33:33.703Z,98958.00
2023-04-16T10:36:13.493Z,98954.00
2023-04-16T10:38:47.994Z,98960.00
2023-04-16T10:41:14.633Z,98957.00
2023-04-16T10:43:46.147Z,98963.00
2023-04-16T10:46:18.561Z,98960.00
2023-04-16T10:51:26.178Z,98961.00
2023-04-16T10:53:55.127Z,98958.00
2023-04-16T10:56:26.416Z,98969.00
2023-04-16T10:58:57.577Z,98960.00
2023-04-16T11:01:31.786Z,98957.00
2023-04-16T11:04:01.878Z,98952.00
2023-04-16T11:06:29.466Z,98962.00
2023-04-16T11:08:56.144Z,98956.00
2023-04-16T11:11:23.341Z,98958.00
2023-04-16T11:13:49.971Z,98962.00
2023-04-16T11:16:17.060Z,98962.00
2023-04-16T11:18:51.489Z,98959.00
2023-04-16T11:21:19.463Z,98966.00
2023-04-16T11:23:51.213Z,98962.00
2023-04-16T11:26:21.655Z,98953.00
2023-04-16T11:28:48.140Z,98958.00
2023-04-16T11:31:14.656Z,98970.00
2023-04-16T11:33:42.721Z,98959.00
2023-04-16T11:36:09.269Z,98967.00
2023-04-16T11:38:37.020Z,98962.00
2023-04-16T11:41:03.685Z,98961.00
2023-04-16T11:43:30.175Z,98971.00
2023-04-16T11:45:58.832Z,98965.00
2023-04-16T11:48:25.395Z,98965.00
2023-04-16T11:50:57.020Z,98974.00
2023-04-16T11:53:23.582Z,98971.00
2023-04-16T11:55:50.317Z,98973.00
2023-04-16T11:58:17.036Z,98974.00
2023-04-16T12:00:45.078Z,98969.00
2023-04-16T12:03:11.835Z,98969.00
2023-04-16T12:05:40.741Z,98969.00
2023-04-16T12:08:09.565Z,98973.00
2023-04-16T12:10:38.561Z,98968.00
2023-04-16T12:13:15.330Z,98977.00
2023-04-16T12:15:50.140Z,98974.00
2023-04-16T12:18:17.843Z,98963.00
2023-04-16T12:20:45.258Z,98972.00
2023-04-16T12:23:33.725Z,98980.00
2023-04-16T12:26:10.281Z,98974.00
2023-04-16T12:28:39.226Z,98968.00
2023-04-16T12:31:06.286Z,98968.00
2023-04-16T12:33:33.007Z,98971.00
2023-04-16T12:35:59.587Z,98974.00
2023-04-16T12:38:27.046Z,98968.00
2023-04-16T12:40:56.874Z,98965.00
2023-04-16T12:43:23.936Z,98970.00
2023-04-16T12:45:50.496Z,98969.00
2023-04-16T12:48:17.005Z,98971.00
2023-04-16T12:50:44.253Z,98969.00
2023-04-16T12:53:11.475Z,98970.00
2023-04-16T12:55:37.932Z,98966.00
2023-04-16T12:58:04.421Z,98967.00
2023-04-16T13:00:30.914Z,98971.00
2023-04-16T13:02:57.466Z,98969.00
2023-04-16T13:05:24.073Z,98970.00
2023-04-16T13:07:50.624Z,98970.00
2023-04-16T13:10:17.310Z,98969.00
2023-04-16T13:12:43.793Z,98978.00
2023-04-16T13:15:10.679Z,98977.00
2023-04-16T13:17:37.328Z,98980.00
2023-04-16T13:20:04.153Z,98972.00
2023-04-16T13:22:30.761Z,98972.00
2023-04-16T13:24:57.382Z,98972.00
2023-04-16T13:27:23.952Z,98968.00
2023-04-16T13:29:50.484Z,98971.00
2023-04-16T13:32:18.793Z,98979.00
2023-04-16T13:34:45.469Z,98980.00
2023-04-16T13:37:12.800Z,98978.00
2023-04-16T13:39:39.280Z,98978.00
2023-04-16T13:42:06.332Z,98982.00
2023-04-16T13:44:32.787Z,98976.00
2023-04-16T13:46:59.376Z,98980.00
2023-04-16T13:49:26.059Z,98982.00
2023-04-16T13:51:52.552Z,98977.00
2023-04-16T13:54:18.998Z,98978.00
2023-04-16T13:56:45.767Z,98984.00
2023-04-16T13:59:12.359Z,98972.00
2023-04-16T14:01:38.909Z,98981.00
2023-04-16T14:04:07.039Z,98978.00
2023-04-16T14:06:34.643Z,98974.00
2023-04-16T14:09:01.846Z,98979.00
2023-04-16T14:11:28.553Z,98980.00
2023-04-16T14:13:55.476Z,98978.00
2023-04-16T14:16:22.093Z,98972.00
2023-04-16T14:18:48.737Z,98968.00
2023-04-16T14:21:15.197Z,98973.00
2023-04-16T14:23:41.661Z,98975.00
2023-04-16T14:26:08.292Z,98977.00
2023-04-16T14:28:35.609Z,98981.00
2023-04-16T14:31:02.065Z,98975.00
2023-04-16T14:33:28.520Z,98977.00
2023-04-16T14:35:55.121Z,98977.00
2023-04-16T14:38:21.896Z,98979.00
2023-04-16T14:40:48.647Z,98979.00
2023-04-16T14:43:15.338Z,98979.00
2023-04-16T14:45:42.187Z,98986.00
2023-04-16T14:48:08.780Z,98974.00
2023-04-16T14:50:39.046Z,98972.00
2023-04-16T14:53:05.866Z,98980.00
2023-04-16T14:55:32.560Z,98978.00
2023-04-16T14:57:59.650Z,98978.00
2023-04-16T15:00:27.291Z,98986.00
2023-04-16T15:02:55.036Z,98983.00
2023-04-16T15:05:22.152Z,98986.00
2023-04-16T15:07:48.890Z,98989.00
2023-04-16T15:10:15.539Z,98977.00
2023-04-16T15:12:42.081Z,98976.00
2023-04-16T15:15:09.402Z,98986.00
2023-04-16T15:17:36.097Z,98984.00
2023-04-16T15:20:06.470Z,98976.00
2023-04-16T15:22:32.970Z,98977.00
2023-04-16T15:24:59.544Z,98977.00
2023-04-16T15:27:26.387Z,98976.00
2023-04-16T15:29:53.961Z,98975.00
2023-04-16T15:32:20.603Z,98981.00
2023-04-16T15:34:47.124Z,98982.00
2023-04-16T15:37:13.964Z,98984.00
2023-04-16T15:39:40.754Z,98978.00
2023-04-16T15:42:08.043Z,98990.00
2023-04-16T15:44:34.741Z,98982.00
2023-04-16T15:47:01.271Z,98984.00
2023-04-16T15:49:27.951Z,98976.00
2023-04-16T15:51:55.473Z,98984.00
2023-04-16T15:54:22.021Z,98974.00
2023-04-16T15:56:48.554Z,98979.00
2023-04-16T15:59:15.131Z,98976.00
2023-04-16T16:01:41.719Z,98978.00
2023-04-16T16:04:08.534Z,98974.00
2023-04-16T16:06:35.629Z,98970.00
2023-04-16T16:09:02.109Z,98973.00
2023-04-16T16:11:28.628Z,98974.00
2023-04-16T16:13:55.132Z,98979.00
2023-04-16T16:16:21.904Z,98971.00
2023-04-16T16:18:48.708Z,98969.00
2023-04-16T16:21:15.217Z,98973.00
2023-04-16T16:23:41.978Z,98985.00
2023-04-16T16:26:09.133Z,98970.00
2023-04-16T16:28:37.819Z,98983.00
2023-04-16T16:31:05.939Z,98982.00
2023-04-16T16:33:32.895Z,98977.00
2023-04-16T16:36:00.506Z,98988.00
2023-04-16T16:38:27.481Z,98993.00
2023-04-16T16:40:53.963Z,98982.00
2023-04-16T16:43:20.675Z,98983.00
2023-04-16T16:45:47.208Z,98994.00
2023-04-16T16:48:13.771Z,98986.00
2023-04-16T16:50:40.331Z,98990.00
2023-04-16T16:53:06.866Z,98989.00
2023-04-16T16:55:35.015Z,98991.00
2023-04-16T16:58:01.815Z,98996.00
2023-04-16T17:00:28.482Z,99003.00
2023-04-16T17:02:55.158Z,98998.00
2023-04-16T17:05:21.874Z,98990.00
2023-04-16T17:07:48.310Z,98993.00
2023-04-16T17:10:20.837Z,98988.00
2023-04-16T17:12:48.560Z,98990.00
2023-04-16T17:15:15.598Z,98998.00
2023-04-16T17:17:42.725Z,98996.00
2023-04-16T17:20:10.821Z,99002.00
2023-04-16T17:22:38.444Z,99007.00
2023-04-16T17:25:06.922Z,99003.00
2023-04-16T17:27:34.332Z,99013.00
2023-04-16T17:30:02.042Z,99012.00
2023-04-16T17:32:29.783Z,99018.00
2023-04-16T17:34:56.620Z,99021.00
2023-04-16T17:37:23.368Z,99026.00
2023-04-16T17:39:50.388Z,99021.00
2023-04-16T17:42:17.267Z,99023.00
2023-04-16T17:44:43.763Z,99030.00
2023-04-16T17:47:10.708Z,99031.00
2023-04-16T17:49:37.242Z,99028.00
2023-04-16T17:52:03.999Z,99041.00
2023-04-16T17:54:30.553Z,99040.00
2023-04-16T17:56:57.574Z,99039.00
2023-04-16T17:59:24.077Z,99039.00
2023-04-16T18:01:50.729Z,99043.00
2023-04-16T18:04:17.843Z,99050.00
2023-04-16T18:06:44.764Z,99055.00
2023-04-16T18:09:12.036Z,99053.00
2023-04-16T18:11:38.568Z,99053.00
2023-04-16T18:14:05.162Z,99052.00
2023-04-16T18:16:32.190Z,99055.00
2023-04-16T18:18:59.039Z,99058.00
2023-04-16T18:21:25.915Z,99049.00
2023-04-16T18:23:52.377Z,99049.00
2023-04-16T18:26:21.101Z,99044.00
2023-04-16T18:28:49.405Z,99056.00
2023-04-16T18:31:18.981Z,99058.00
2023-04-16T18:33:56.782Z,99056.00
2023-04-16T18:36:24.639Z,99062.00
2023-04-16T18:39:00.093Z,99064.00
2023-04-16T18:41:28.694Z,99058.00
2023-04-16T18:43:55.317Z,99063.00
2023-04-16T18:46:21.909Z,99069.00
2023-04-16T18:48:48.486Z,99076.00
2023-04-16T18:51:16.369Z,99068.00
2023-04-16T18:53:45.386Z,99074.00
2023-04-16T18:56:12.491Z,99066.00
2023-04-16T18:58:39.064Z,99070.00
2023-04-16T19:01:10.845Z,99079.00
2023-04-16T19:03:37.827Z,99077.00
2023-04-16T19:06:04.726Z,99084.00
2023-04-16T19:08:31.180Z,99081.00
2023-04-16T19:10:57.670Z,99083.00
2023-04-16T19:13:24.244Z,99083.00
2023-04-16T19:15:50.840Z,99086.00
2023-04-16T19:18:17.282Z,99079.00
2023-04-16T19:20:43.720Z,99077.00
2023-04-16T19:23:10.383Z,99079.00
2023-04-16T19:25:36.909Z,99078.00
2023-04-16T19:28:03.899Z,99076.00
2023-04-16T19:30:31.102Z,99081.00
2023-04-16T19:32:57.971Z,99077.00
2023-04-16T19:35:24.582Z,99080.00
2023-04-16T19:37:51.250Z,99078.00
2023-04-16T19:40:17.958Z,99079.00
2023-04-16T19:42:45.347Z,99084.00
2023-04-16T19:45:12.145Z,99081.00
2023-04-16T19:47:38.769Z,99075.00
2023-04-16T19:50:06.024Z,99082.00
2023-04-16T19:52:37.338Z,99082.00
2023-04-16T19:55:04.913Z,99081.00
2023-04-16T19:57:31.371Z,99088.00
2023-04-16T19:59:57.833Z,99088.00
2023-04-16T20:02:24.440Z,99097.00
2023-04-16T20:04:52.869Z,99096.00
2023-04-16T20:07:19.873Z,99094.00
2023-04-16T20:09:46.481Z,99096.00
2023-04-16T20:12:12.945Z,99087.00
2023-04-16T20:14:39.447Z,99095.00
2023-04-16T20:17:10.092Z,99095.00
2023-04-16T20:19:40.625Z,99090.00
2023-04-16T20:22:07.363Z,99095.00
2023-04-16T20:24:34.252Z,99100.00
2023-04-16T20:27:01.726Z,99099.00
2023-04-16T20:29:28.277Z,99105.00
2023-04-16T20:31:54.790Z,99096.00
2023-04-16T20:34:21.267Z,99094.00
2023-04-16T20:36:47.717Z,99091.00
2023-04-16T20:39:14.689Z,99092.00
2023-04-16T20:41:44.117Z,99096.00
2023-04-16T20:44:17.994Z,99097.00
2023-04-16T20:46:49.367Z,99099.00
2023-04-16T20:49:17.498Z,99093.00
2023-04-16T20:51:44.020Z,99092.00
2023-04-16T20:54:10.697Z,99089.00
2023-04-16T20:56:37.140Z,99086.00
2023-04-16T20:59:03.594Z,99083.00
2023-04-16T21:01:30.154Z,99085.00
2023-04-16T21:03:56.853Z,99087.00
2023-04-16T21:06:23.635Z,99088.00
2023-04-16T21:08:50.353Z,99084.00
2023-04-16T21:11:16.881Z,99079.00
2023-04-16T21:13:43.330Z,99087.00
2023-04-16T21:16:12.235Z,99084.00
2023-04-16T21:18:38.739Z,99084.00
2023-04-16T21:21:05.441Z,99076.00
2023-04-16T21:23:31.937Z,99080.00
2023-04-16T21:25:58.432Z,99080.00
2023-04-16T21:28:24.980Z,99085.00
2023-04-16T21:30:52.370Z,99092.00
2023-04-16T21:33:18.969Z,99075.00
2023-04-16T21:35:51.425Z,99087.00
2023-04-16T21:38:18.330Z,99081.00
2023-04-16T21:40:53.835Z,99080.00
2023-04-16T21:43:20.833Z,99079.00
2023-04-16T21:45:47.508Z,99076.00
2023-04-16T21:48:14.182Z,99074.00
2023-04-16T21:50:40.635Z,99079.00
2023-04-16T21:53:07.112Z,99076.00
2023-04-16T21:55:34.681Z,99074.00
2023-04-16T21:58:01.696Z,99069.00
2023-04-16T22:00:28.488Z,99071.00
2023-04-16T22:02:56.029Z,99074.00
2023-04-16T22:05:23.998Z,99073.00
2023-04-16T22:07:50.655Z,99068.00
2023-04-16T22:10:17.278Z,99078.00
2023-04-16T22:12:47.383Z,99070.00
2023-04-16T22:15:14.299Z,99070.00
2023-04-16T22:17:40.991Z,99067.00
2023-04-16T22:20:14.124Z,99072.00
2023-04-16T22:22:44.107Z,99067.00
2023-04-16T22:25:11.276Z,99058.00
2023-04-16T22:27:37.884Z,99074.00
2023-04-16T22:30:06.679Z,99073.00
2023-04-16T22:32:33.369Z,99065.00
2023-04-16T22:34:59.889Z,99059.00
2023-04-16T22:37:26.404Z,99068.00
2023-04-16T22:39:52.835Z,99074.00
2023-04-16T22:42:19.324Z,99062.00
2023-04-16T22:44:45.939Z,99071.00
2023-04-16T22:47:12.420Z,99075.00
2023-04-16T22:49:38.910Z,99069.00
2023-04-16T22:52:05.475Z,99066.00
2023-04-16T22:54:32.605Z,99071.00
2023-04-16T22:56:59.128Z,99070.00
2023-04-16T22:59:25.869Z,99066.00
2023-04-16T23:01:52.778Z,99065.00
2023-04-16T23:04:19.537Z,99063.00
2023-04-16T23:06:46.367Z,99066.00
2023-04-16T23:09:13.204Z,99061.00
2023-04-16T23:11:39.913Z,99063.00
2023-04-16T23:14:06.401Z,99063.00
2023-04-16T23:16:32.981Z,99059.00
2023-04-16T23:18:59.449Z,99063.00
2023-04-16T23:21:26.197Z,99062.00
2023-04-16T23:23:52.703Z,99065.00
2023-04-16T23:26:19.148Z,99061.00
2023-04-16T23:28:45.716Z,99062.00
2023-04-16T23:31:12.158Z,99066.00
2023-04-16T23:33:38.749Z,99063.00
2023-04-16T23:36:05.497Z,99069.00
2023-04-16T23:38:32.000Z,99073.00
2023-04-16T23:40:58.480Z,99064.00
2023-04-16T23:43:25.076Z,99064.00
2023-04-16T23:45:51.560Z,99062.00
2023-04-16T23:48:18.086Z,99069.00
2023-04-16T23:50:44.606Z,99059.00
2023-04-16T23:53:11.050Z,99064.00
2023-04-16T23:55:37.699Z,99068.00
2023-04-16T23:58:04.192Z,99065.00
